createdAt,value
2023-03-19T00:00:10.428Z,0.00
2023-03-19T00:01:10.415Z,0.00
2023-03-19T00:02:17.667Z,0.00
2023-03-19T00:03:11.470Z,0.00
2023-03-19T00:04:10.390Z,0.00
2023-03-19T00:05:10.390Z,0.00
2023-03-19T00:06:10.364Z,0.00
2023-03-19T00:07:10.349Z,0.00
2023-03-19T00:08:10.346Z,0.00
2023-03-19T00:09:10.379Z,0.00
2023-03-19T00:10:10.319Z,0.00
2023-03-19T00:11:10.314Z,0.00
2023-03-19T00:12:10.305Z,0.00
2023-03-19T00:13:10.288Z,0.00
2023-03-19T00:14:10.287Z,0.00
2023-03-19T00:15:10.286Z,0.00
2023-03-19T00:16:10.356Z,0.00
2023-03-19T00:17:10.269Z,0.00
2023-03-19T00:18:10.266Z,0.00
2023-03-19T00:19:10.231Z,0.00
2023-03-19T00:20:10.235Z,0.00
2023-03-19T00:21:10.214Z,0.00
2023-03-19T00:22:10.199Z,0.00
2023-03-19T00:23:10.182Z,0.00
2023-03-19T00:24:10.169Z,0.00
2023-03-19T00:25:10.279Z,0.00
2023-03-19T00:26:10.153Z,0.00
2023-03-19T00:27:10.152Z,0.00
2023-03-19T00:28:10.134Z,0.00
2023-03-19T00:29:10.130Z,0.00
2023-03-19T00:30:10.099Z,0.00
2023-03-19T00:31:10.178Z,0.00
2023-03-19T00:32:10.097Z,0.00
2023-03-19T00:33:10.149Z,0.00
2023-03-19T00:34:10.050Z,0.00
2023-03-19T00:35:10.038Z,0.00
2023-03-19T00:36:10.108Z,0.00
2023-03-19T00:37:10.026Z,0.00
2023-03-19T00:38:10.016Z,0.00
2023-03-19T00:39:10.034Z,0.00
2023-03-19T00:40:09.984Z,0.00
2023-03-19T00:41:09.975Z,0.00
2023-03-19T00:42:09.981Z,0.00
2023-03-19T00:43:09.959Z,0.00
2023-03-19T00:44:09.953Z,0.00
2023-03-19T00:45:09.943Z,0.00
2023-03-19T00:46:09.980Z,0.00
2023-03-19T00:47:09.947Z,0.00
2023-03-19T00:48:09.891Z,0.00
2023-03-19T00:49:09.900Z,0.00
2023-03-19T00:50:09.893Z,0.00
2023-03-19T00:51:09.874Z,0.00
2023-03-19T00:52:09.887Z,0.00
2023-03-19T00:53:09.844Z,0.00
2023-03-19T00:54:09.835Z,0.00
2023-03-19T00:55:09.817Z,0.00
2023-03-19T00:56:09.812Z,0.00
2023-03-19T00:57:09.821Z,0.00
2023-03-19T00:58:09.804Z,0.00
2023-03-19T00:59:09.963Z,0.00
2023-03-19T01:00:09.773Z,0.00
2023-03-19T01:01:09.814Z,0.00
2023-03-19T01:02:09.762Z,0.00
2023-03-19T01:03:09.729Z,0.00
2023-03-19T01:04:09.744Z,0.00
2023-03-19T01:05:09.702Z,0.00
2023-03-19T01:06:09.705Z,0.00
2023-03-19T01:07:09.680Z,0.00
2023-03-19T01:08:09.753Z,0.00
2023-03-19T01:09:09.659Z,0.00
2023-03-19T01:10:09.667Z,0.00
2023-03-19T01:11:09.629Z,0.00
2023-03-19T01:12:09.642Z,0.00
2023-03-19T01:13:09.638Z,0.00
2023-03-19T01:14:09.605Z,0.00
2023-03-19T01:15:09.638Z,0.00
2023-03-19T01:16:09.601Z,0.00
2023-03-19T01:17:09.583Z,0.00
2023-03-19T01:18:09.579Z,0.00
2023-03-19T01:19:09.577Z,0.00
2023-03-19T01:20:09.538Z,0.00
2023-03-19T01:21:09.530Z,0.00
2023-03-19T01:22:09.518Z,0.00
2023-03-19T01:23:09.498Z,0.00
2023-03-19T01:24:09.498Z,0.00
2023-03-19T01:25:09.503Z,0.00
2023-03-19T01:26:09.470Z,0.00
2023-03-19T01:27:09.458Z,0.00
2023-03-19T01:28:09.450Z,0.00
2023-03-19T01:29:09.459Z,0.00
2023-03-19T01:30:09.419Z,0.00
2023-03-19T01:31:09.456Z,0.00
2023-03-19T01:32:09.421Z,0.00
2023-03-19T01:33:09.475Z,0.00
2023-03-19T01:34:09.387Z,0.00
2023-03-19T01:35:09.383Z,0.00
2023-03-19T01:36:09.402Z,0.00
2023-03-19T01:37:09.341Z,0.00
2023-03-19T01:38:09.342Z,0.00
2023-03-19T01:39:09.321Z,0.00
2023-03-19T01:40:09.514Z,0.00
2023-03-19T01:41:09.300Z,0.00
2023-03-19T01:42:09.308Z,0.00
2023-03-19T01:43:09.290Z,0.00
2023-03-19T01:44:09.282Z,0.00
2023-03-19T01:45:09.253Z,0.00
2023-03-19T01:46:09.279Z,0.00
2023-03-19T01:47:09.230Z,0.00
2023-03-19T01:48:09.239Z,0.00
2023-03-19T01:49:09.230Z,0.00
2023-03-19T01:50:09.216Z,0.00
2023-03-19T01:51:09.234Z,0.00
2023-03-19T01:52:09.189Z,0.00
2023-03-19T01:53:12.035Z,0.00
2023-03-19T01:54:09.177Z,0.00
2023-03-19T01:55:09.162Z,0.00
2023-03-19T01:56:09.141Z,0.00
2023-03-19T01:57:09.140Z,0.00
2023-03-19T01:58:09.121Z,0.00
2023-03-19T01:59:09.091Z,0.00
2023-03-19T02:00:09.102Z,0.00
2023-03-19T02:01:09.098Z,0.00
2023-03-19T02:02:09.098Z,0.00
2023-03-19T02:03:09.058Z,0.00
2023-03-19T02:04:09.251Z,0.00
2023-03-19T02:05:09.029Z,0.00
2023-03-19T02:06:09.039Z,0.00
2023-03-19T02:07:09.020Z,0.00
2023-03-19T02:08:09.329Z,0.00
2023-03-19T02:09:09.029Z,0.00
2023-03-19T02:10:08.976Z,0.00
2023-03-19T02:11:08.980Z,0.00
2023-03-19T02:12:08.981Z,0.00
2023-03-19T02:13:09.031Z,0.00
2023-03-19T02:14:08.940Z,0.00
2023-03-19T02:15:08.917Z,0.00
2023-03-19T02:16:08.945Z,0.00
2023-03-19T02:17:08.897Z,0.00
2023-03-19T02:18:08.936Z,0.00
2023-03-19T02:19:08.899Z,0.00
2023-03-19T02:20:08.876Z,0.00
2023-03-19T02:21:08.863Z,0.00
2023-03-19T02:22:08.863Z,0.00
2023-03-19T02:23:08.827Z,0.00
2023-03-19T02:24:08.824Z,0.00
2023-03-19T02:25:08.826Z,0.00
2023-03-19T02:26:08.831Z,0.00
2023-03-19T02:27:08.780Z,0.00
2023-03-19T02:28:08.780Z,0.00
2023-03-19T02:29:08.772Z,0.00
2023-03-19T02:30:08.768Z,0.00
2023-03-19T02:31:08.779Z,0.00
2023-03-19T02:32:08.740Z,0.00
2023-03-19T02:33:08.756Z,0.00
2023-03-19T02:34:08.751Z,0.00
2023-03-19T02:35:08.690Z,0.00
2023-03-19T02:36:08.744Z,0.00
2023-03-19T02:37:08.671Z,0.00
2023-03-19T02:38:08.670Z,0.00
2023-03-19T02:39:08.687Z,0.00
2023-03-19T02:40:08.651Z,0.00
2023-03-19T02:41:08.625Z,0.00
2023-03-19T02:42:08.643Z,0.00
2023-03-19T02:43:08.614Z,0.00
2023-03-19T02:44:08.607Z,0.00
2023-03-19T02:45:08.696Z,0.00
2023-03-19T02:46:08.702Z,0.00
2023-03-19T02:47:08.585Z,0.00
2023-03-19T02:48:08.573Z,0.00
2023-03-19T02:49:08.548Z,0.00
2023-03-19T02:50:08.538Z,0.00
2023-03-19T02:51:08.546Z,0.00
2023-03-19T02:52:08.516Z,0.00
2023-03-19T02:53:08.491Z,0.00
2023-03-19T02:54:08.492Z,0.00
2023-03-19T02:55:08.477Z,0.00
2023-03-19T02:56:08.501Z,0.00
2023-03-19T02:57:08.447Z,0.00
2023-03-19T02:58:08.441Z,0.00
2023-03-19T02:59:08.438Z,0.00
2023-03-19T03:00:08.424Z,0.00
2023-03-19T03:01:08.466Z,0.00
2023-03-19T03:02:08.431Z,0.00
2023-03-19T03:03:08.385Z,0.00
2023-03-19T03:04:08.374Z,0.00
2023-03-19T03:05:08.371Z,0.00
2023-03-19T03:06:08.362Z,0.00
2023-03-19T03:07:08.344Z,0.00
2023-03-19T03:08:08.344Z,0.00
2023-03-19T03:09:08.324Z,0.00
2023-03-19T03:10:08.424Z,0.00
2023-03-19T03:11:08.304Z,0.00
2023-03-19T03:12:08.308Z,0.00
2023-03-19T03:13:08.284Z,0.00
2023-03-19T03:14:08.271Z,0.00
2023-03-19T03:15:08.258Z,0.00
2023-03-19T03:16:08.345Z,0.00
2023-03-19T03:17:08.226Z,0.00
2023-03-19T03:18:08.233Z,0.00
2023-03-19T03:19:08.222Z,0.00
2023-03-19T03:20:08.216Z,0.00
2023-03-19T03:21:08.196Z,0.00
2023-03-19T03:22:08.214Z,0.00
2023-03-19T03:23:08.166Z,0.00
2023-03-19T03:24:08.159Z,0.00
2023-03-19T03:25:08.154Z,0.00
2023-03-19T03:26:08.145Z,0.00
2023-03-19T03:27:08.135Z,0.00
2023-03-19T03:28:08.128Z,0.00
2023-03-19T03:29:08.095Z,0.00
2023-03-19T03:30:08.101Z,0.00
2023-03-19T03:31:08.090Z,0.00
2023-03-19T03:32:08.081Z,0.00
2023-03-19T03:33:08.171Z,0.00
2023-03-19T03:34:08.056Z,0.00
2023-03-19T03:35:08.032Z,0.00
2023-03-19T03:36:08.018Z,0.00
2023-03-19T03:37:08.041Z,0.00
2023-03-19T03:38:08.024Z,0.00
2023-03-19T03:39:08.047Z,0.00
2023-03-19T03:40:07.988Z,0.00
2023-03-19T03:41:08.050Z,0.00
2023-03-19T03:42:07.963Z,0.00
2023-03-19T03:43:08.021Z,0.00
2023-03-19T03:44:07.945Z,0.00
2023-03-19T03:45:07.909Z,0.00
2023-03-19T03:46:07.938Z,0.00
2023-03-19T03:47:07.901Z,0.00
2023-03-19T03:48:07.901Z,0.00
2023-03-19T03:49:07.875Z,0.00
2023-03-19T03:50:07.890Z,0.00
2023-03-19T03:51:07.856Z,0.00
2023-03-19T03:52:07.842Z,0.00
2023-03-19T03:53:07.842Z,0.00
2023-03-19T03:54:07.822Z,0.00
2023-03-19T03:55:07.806Z,0.00
2023-03-19T03:56:07.811Z,0.00
2023-03-19T03:57:07.786Z,0.00
2023-03-19T03:58:07.787Z,0.00
2023-03-19T03:59:07.816Z,0.00
2023-03-19T04:00:07.772Z,0.00
2023-03-19T04:01:07.860Z,0.00
2023-03-19T04:02:08.354Z,0.00
2023-03-19T04:03:07.757Z,0.00
2023-03-19T04:04:07.710Z,0.00
2023-03-19T04:05:07.703Z,0.00
2023-03-19T04:06:07.694Z,0.00
2023-03-19T04:07:07.663Z,0.00
2023-03-19T04:08:07.668Z,0.00
2023-03-19T04:09:07.667Z,0.00
2023-03-19T04:10:07.661Z,0.00
2023-03-19T04:11:07.626Z,0.00
2023-03-19T04:12:07.649Z,0.00
2023-03-19T04:13:07.603Z,0.00
2023-03-19T04:14:07.601Z,0.00
2023-03-19T04:15:07.583Z,0.00
2023-03-19T04:16:07.601Z,0.00
2023-03-19T04:17:08.160Z,0.00
2023-03-19T04:18:07.563Z,0.00
2023-03-19T04:19:07.553Z,0.00
2023-03-19T04:20:07.551Z,0.00
2023-03-19T04:21:07.586Z,0.00
2023-03-19T04:22:07.534Z,0.00
2023-03-19T04:23:07.518Z,0.00
2023-03-19T04:24:07.485Z,0.00
2023-03-19T04:25:07.491Z,0.00
2023-03-19T04:26:07.519Z,0.00
2023-03-19T04:27:07.490Z,0.00
2023-03-19T04:28:07.442Z,0.00
2023-03-19T04:29:07.424Z,0.00
2023-03-19T04:30:07.428Z,0.00
2023-03-19T04:31:07.452Z,0.00
2023-03-19T04:32:07.415Z,0.00
2023-03-19T04:33:07.486Z,0.00
2023-03-19T04:34:07.400Z,0.00
2023-03-19T04:35:07.356Z,0.00
2023-03-19T04:36:07.379Z,0.00
2023-03-19T04:37:07.370Z,0.00
2023-03-19T04:38:07.335Z,0.00
2023-03-19T04:39:07.315Z,0.00
2023-03-19T04:40:07.315Z,0.00
2023-03-19T04:41:07.304Z,0.00
2023-03-19T04:42:07.295Z,0.00
2023-03-19T04:43:07.290Z,0.00
2023-03-19T04:44:07.262Z,0.00
2023-03-19T04:45:07.247Z,0.00
2023-03-19T04:46:07.316Z,0.00
2023-03-19T04:47:07.227Z,0.00
2023-03-19T04:48:07.223Z,0.00
2023-03-19T04:49:07.222Z,0.00
2023-03-19T04:50:07.200Z,0.00
2023-03-19T04:51:07.172Z,0.00
2023-03-19T04:52:07.183Z,0.00
2023-03-19T04:53:07.165Z,0.00
2023-03-19T04:54:07.182Z,0.00
2023-03-19T04:55:07.133Z,0.00
2023-03-19T04:56:07.134Z,0.00
2023-03-19T04:57:07.102Z,0.00
2023-03-19T04:58:07.113Z,0.00
2023-03-19T04:59:07.121Z,0.00
2023-03-19T05:00:07.095Z,0.00
2023-03-19T05:01:07.108Z,0.00
2023-03-19T05:02:07.065Z,0.00
2023-03-19T05:03:07.048Z,0.00
2023-03-19T05:04:07.149Z,0.00
2023-03-19T05:05:07.016Z,0.00
2023-03-19T05:06:07.024Z,0.00
2023-03-19T05:07:07.004Z,0.00
2023-03-19T05:08:06.998Z,0.00
2023-03-19T05:09:07.041Z,0.00
2023-03-19T05:10:06.965Z,0.00
2023-03-19T05:11:06.977Z,0.00
2023-03-19T05:12:06.947Z,0.00
2023-03-19T05:13:06.943Z,0.00
2023-03-19T05:14:06.933Z,0.00
2023-03-19T05:15:06.934Z,4.00
2023-03-19T05:16:06.977Z,4.00
2023-03-19T05:17:07.338Z,0.00
2023-03-19T05:18:06.876Z,4.00
2023-03-19T05:19:06.912Z,4.00
2023-03-19T05:20:06.863Z,4.00
2023-03-19T05:21:06.871Z,4.00
2023-03-19T05:22:06.867Z,0.00
2023-03-19T05:23:06.819Z,4.00
2023-03-19T05:24:06.815Z,4.00
2023-03-19T05:25:06.856Z,8.00
2023-03-19T05:26:06.808Z,4.00
2023-03-19T05:27:06.787Z,8.00
2023-03-19T05:28:06.775Z,4.00
2023-03-19T05:29:06.770Z,8.00
2023-03-19T05:30:06.750Z,8.00
2023-03-19T05:31:06.826Z,8.00
2023-03-19T05:32:06.726Z,12.00
2023-03-19T05:33:06.813Z,16.00
2023-03-19T05:34:06.694Z,16.00
2023-03-19T05:35:06.695Z,16.00
2023-03-19T05:36:06.680Z,16.00
2023-03-19T05:37:06.693Z,20.00
2023-03-19T05:38:06.655Z,20.00
2023-03-19T05:39:06.654Z,24.00
2023-03-19T05:40:06.635Z,24.00
2023-03-19T05:41:06.664Z,28.00
2023-03-19T05:42:06.636Z,28.00
2023-03-19T05:43:06.610Z,28.00
2023-03-19T05:44:06.586Z,28.00
2023-03-19T05:45:06.598Z,32.00
2023-03-19T05:46:06.590Z,32.00
2023-03-19T05:47:06.578Z,36.00
2023-03-19T05:48:06.534Z,40.00
2023-03-19T05:49:06.567Z,44.00
2023-03-19T05:50:06.523Z,48.00
2023-03-19T05:51:06.505Z,56.00
2023-03-19T05:52:06.525Z,56.00
2023-03-19T05:53:06.635Z,60.00
2023-03-19T05:54:06.468Z,64.00
2023-03-19T05:55:06.466Z,64.00
2023-03-19T05:56:06.451Z,68.00
2023-03-19T05:57:06.450Z,72.00
2023-03-19T05:58:06.456Z,80.00
2023-03-19T05:59:06.438Z,88.00
2023-03-19T06:00:06.416Z,92.00
2023-03-19T06:01:06.409Z,92.00
2023-03-19T06:02:06.412Z,96.00
2023-03-19T06:03:06.438Z,100.00
2023-03-19T06:04:06.657Z,104.00
2023-03-19T06:05:06.351Z,108.00
2023-03-19T06:06:06.394Z,112.00
2023-03-19T06:07:06.362Z,120.00
2023-03-19T06:08:06.341Z,120.00
2023-03-19T06:09:06.335Z,124.00
2023-03-19T06:10:06.286Z,132.00
2023-03-19T06:11:06.293Z,140.00
2023-03-19T06:12:06.282Z,144.00
2023-03-19T06:13:06.284Z,148.00
2023-03-19T06:14:06.254Z,152.00
2023-03-19T06:15:06.249Z,160.00
2023-03-19T06:16:06.261Z,176.00
2023-03-19T06:17:06.222Z,188.00
2023-03-19T06:18:06.202Z,200.00
2023-03-19T06:19:06.226Z,212.00
2023-03-19T06:20:06.180Z,228.00
2023-03-19T06:21:06.185Z,244.00
2023-03-19T06:22:06.188Z,256.00
2023-03-19T06:23:06.174Z,272.00
2023-03-19T06:24:06.376Z,280.00
2023-03-19T06:25:06.145Z,288.00
2023-03-19T06:26:06.121Z,296.00
2023-03-19T06:27:06.111Z,312.00
2023-03-19T06:28:06.108Z,328.00
2023-03-19T06:29:06.090Z,340.00
2023-03-19T06:30:06.055Z,356.00
2023-03-19T06:31:06.178Z,368.00
2023-03-19T06:32:06.055Z,384.00
2023-03-19T06:33:06.081Z,396.00
2023-03-19T06:34:06.071Z,404.00
2023-03-19T06:35:06.030Z,412.00
2023-03-19T06:36:06.006Z,424.00
2023-03-19T06:37:06.010Z,440.00
2023-03-19T06:38:05.979Z,456.00
2023-03-19T06:39:05.997Z,464.00
2023-03-19T06:40:05.985Z,464.00
2023-03-19T06:41:05.972Z,464.00
2023-03-19T06:42:05.998Z,476.00
2023-03-19T06:43:05.931Z,484.00
2023-03-19T06:44:05.923Z,488.00
2023-03-19T06:45:05.930Z,488.00
2023-03-19T06:46:06.398Z,484.00
2023-03-19T06:47:05.881Z,480.00
2023-03-19T06:48:05.962Z,476.00
2023-03-19T06:49:05.870Z,468.00
2023-03-19T06:50:05.894Z,464.00
2023-03-19T06:51:05.861Z,464.00
2023-03-19T06:52:05.843Z,464.00
2023-03-19T06:53:05.841Z,472.00
2023-03-19T06:54:05.801Z,472.00
2023-03-19T06:55:05.853Z,480.00
2023-03-19T06:56:05.793Z,488.00
2023-03-19T06:57:05.804Z,496.00
2023-03-19T06:58:05.756Z,504.00
2023-03-19T06:59:05.763Z,512.00
2023-03-19T07:00:05.984Z,524.00
2023-03-19T07:01:05.856Z,532.00
2023-03-19T07:02:05.766Z,540.00
2023-03-19T07:03:05.772Z,544.00
2023-03-19T07:04:05.702Z,540.00
2023-03-19T07:05:05.750Z,540.00
2023-03-19T07:06:05.683Z,540.00
2023-03-19T07:07:06.634Z,544.00
2023-03-19T07:08:05.650Z,552.00
2023-03-19T07:09:06.644Z,556.00
2023-03-19T07:10:05.635Z,564.00
2023-03-19T07:11:05.676Z,568.00
2023-03-19T07:12:05.614Z,572.00
2023-03-19T07:13:05.621Z,584.00
2023-03-19T07:14:05.592Z,600.00
2023-03-19T07:15:05.588Z,616.00
2023-03-19T07:16:05.590Z,644.00
2023-03-19T07:17:05.682Z,732.00
2023-03-19T07:18:05.549Z,756.00
2023-03-19T07:19:05.552Z,780.00
2023-03-19T07:20:05.540Z,752.00
2023-03-19T07:21:05.545Z,800.00
2023-03-19T07:22:05.540Z,820.00
2023-03-19T07:23:05.550Z,828.00
2023-03-19T07:24:05.496Z,840.00
2023-03-19T07:25:05.464Z,848.00
2023-03-19T07:26:05.461Z,820.00
2023-03-19T07:27:05.448Z,776.00
2023-03-19T07:28:05.425Z,712.00
2023-03-19T07:29:05.442Z,668.00
2023-03-19T07:30:05.540Z,640.00
2023-03-19T07:31:05.396Z,644.00
2023-03-19T07:32:05.474Z,660.00
2023-03-19T07:33:05.394Z,676.00
2023-03-19T07:34:05.360Z,680.00
2023-03-19T07:35:05.376Z,692.00
2023-03-19T07:36:05.353Z,680.00
2023-03-19T07:37:05.348Z,676.00
2023-03-19T07:38:05.327Z,696.00
2023-03-19T07:39:05.304Z,696.00
2023-03-19T07:40:05.295Z,684.00
2023-03-19T07:41:05.312Z,684.00
2023-03-19T07:42:05.283Z,680.00
2023-03-19T07:43:05.261Z,684.00
2023-03-19T07:44:05.253Z,708.00
2023-03-19T07:45:05.258Z,708.00
2023-03-19T07:46:05.784Z,720.00
2023-03-19T07:47:05.894Z,748.00
2023-03-19T07:48:05.191Z,756.00
2023-03-19T07:49:05.204Z,788.00
2023-03-19T07:50:05.177Z,792.00
2023-03-19T07:51:05.192Z,820.00
2023-03-19T07:52:05.190Z,872.00
2023-03-19T07:53:05.239Z,968.00
2023-03-19T07:54:05.194Z,984.00
2023-03-19T07:55:05.135Z,1012.00
2023-03-19T07:56:05.152Z,1004.00
2023-03-19T07:57:05.125Z,956.00
2023-03-19T07:58:05.083Z,1020.00
2023-03-19T07:59:05.101Z,1060.00
2023-03-19T08:00:05.073Z,1100.00
2023-03-19T08:01:05.075Z,1056.00
2023-03-19T08:02:05.096Z,1084.00
2023-03-19T08:03:05.039Z,1088.00
2023-03-19T08:04:05.116Z,1088.00
2023-03-19T08:05:05.010Z,1128.00
2023-03-19T08:06:05.024Z,1176.00
2023-03-19T08:07:04.991Z,1248.00
2023-03-19T08:08:04.972Z,1364.00
2023-03-19T08:09:04.970Z,1444.00
2023-03-19T08:10:04.958Z,1464.00
2023-03-19T08:11:04.961Z,1420.00
2023-03-19T08:12:04.967Z,1428.00
2023-03-19T08:13:04.923Z,1436.00
2023-03-19T08:14:04.910Z,1476.00
2023-03-19T08:15:04.909Z,1500.00
2023-03-19T08:16:04.881Z,1408.00
2023-03-19T08:17:04.929Z,1396.00
2023-03-19T08:18:04.958Z,1404.00
2023-03-19T08:19:04.861Z,1272.00
2023-03-19T08:20:04.861Z,1256.00
2023-03-19T08:21:04.874Z,1124.00
2023-03-19T08:22:04.863Z,1180.00
2023-03-19T08:23:04.800Z,1180.00
2023-03-19T08:24:05.165Z,1176.00
2023-03-19T08:25:04.815Z,996.00
2023-03-19T08:26:04.783Z,984.00
2023-03-19T08:27:04.797Z,1020.00
2023-03-19T08:28:04.758Z,1216.00
2023-03-19T08:29:04.750Z,1348.00
2023-03-19T08:30:04.727Z,1392.00
2023-03-19T08:31:04.748Z,1216.00
2023-03-19T08:32:04.714Z,1280.00
2023-03-19T08:33:04.833Z,1456.00
2023-03-19T08:34:04.683Z,1360.00
2023-03-19T08:35:04.691Z,1500.00
2023-03-19T08:36:04.703Z,1516.00
2023-03-19T08:37:04.653Z,1544.00
2023-03-19T08:38:04.675Z,1528.00
2023-03-19T08:39:04.653Z,1532.00
2023-03-19T08:40:04.623Z,1500.00
2023-03-19T08:41:04.631Z,1348.00
2023-03-19T08:42:04.601Z,1188.00
2023-03-19T08:43:04.611Z,1112.00
2023-03-19T08:44:04.584Z,952.00
2023-03-19T08:45:04.591Z,1000.00
2023-03-19T08:46:04.591Z,944.00
2023-03-19T08:47:04.547Z,940.00
2023-03-19T08:48:04.536Z,940.00
2023-03-19T08:49:04.547Z,980.00
2023-03-19T08:50:04.504Z,1012.00
2023-03-19T08:51:04.535Z,1028.00
2023-03-19T08:52:04.492Z,1120.00
2023-03-19T08:53:04.501Z,1192.00
2023-03-19T08:54:04.487Z,1240.00
2023-03-19T08:55:04.463Z,1304.00
2023-03-19T08:56:04.450Z,1380.00
2023-03-19T08:57:04.525Z,1440.00
2023-03-19T08:58:04.445Z,1484.00
2023-03-19T08:59:04.420Z,1788.00
2023-03-19T09:00:04.389Z,1912.00
2023-03-19T09:01:04.411Z,1928.00
2023-03-19T09:02:04.428Z,2008.00
2023-03-19T09:03:04.358Z,2044.00
2023-03-19T09:04:04.349Z,2068.00
2023-03-19T09:05:04.356Z,2196.00
2023-03-19T09:06:04.348Z,2304.00
2023-03-19T09:07:04.382Z,1824.00
2023-03-19T09:08:04.306Z,2184.00
2023-03-19T09:09:04.298Z,2248.00
2023-03-19T09:10:04.284Z,2296.00
2023-03-19T09:11:04.340Z,1820.00
2023-03-19T09:12:04.250Z,1800.00
2023-03-19T09:13:04.298Z,1796.00
2023-03-19T09:14:04.236Z,1776.00
2023-03-19T09:15:04.266Z,1768.00
2023-03-19T09:16:04.237Z,1796.00
2023-03-19T09:17:04.235Z,1768.00
2023-03-19T09:18:04.222Z,1692.00
2023-03-19T09:19:04.195Z,1684.00
2023-03-19T09:20:04.178Z,2252.00
2023-03-19T09:21:04.205Z,1752.00
2023-03-19T09:22:04.146Z,1644.00
2023-03-19T09:23:04.204Z,1916.00
2023-03-19T09:24:04.187Z,1580.00
2023-03-19T09:25:04.135Z,2016.00
2023-03-19T09:26:04.126Z,1792.00
2023-03-19T09:27:04.102Z,1312.00
2023-03-19T09:28:04.101Z,1376.00
2023-03-19T09:29:04.085Z,1412.00
2023-03-19T09:30:04.074Z,1964.00
2023-03-19T09:31:04.126Z,1812.00
2023-03-19T09:32:04.045Z,1772.00
2023-03-19T09:33:04.081Z,1308.00
2023-03-19T09:34:04.041Z,1756.00
2023-03-19T09:35:04.047Z,1612.00
2023-03-19T09:36:04.021Z,2232.00
2023-03-19T09:37:03.978Z,1728.00
2023-03-19T09:38:03.985Z,1876.00
2023-03-19T09:39:03.973Z,1896.00
2023-03-19T09:40:03.949Z,1812.00
2023-03-19T09:41:03.959Z,1744.00
2023-03-19T09:42:03.936Z,1772.00
2023-03-19T09:43:03.901Z,1676.00
2023-03-19T09:44:03.925Z,1528.00
2023-03-19T09:45:03.891Z,1448.00
2023-03-19T09:46:03.883Z,1464.00
2023-03-19T09:47:03.885Z,1424.00
2023-03-19T09:48:03.878Z,1420.00
2023-03-19T09:49:03.884Z,1516.00
2023-03-19T09:50:03.858Z,1564.00
2023-03-19T09:51:03.818Z,1556.00
2023-03-19T09:52:03.830Z,1568.00
2023-03-19T09:53:03.819Z,1632.00
2023-03-19T09:54:03.829Z,1704.00
2023-03-19T09:55:03.798Z,1592.00
2023-03-19T09:56:03.797Z,1388.00
2023-03-19T09:57:03.769Z,1364.00
2023-03-19T09:58:03.783Z,1460.00
2023-03-19T09:59:03.740Z,1540.00
2023-03-19T10:00:03.776Z,1636.00
2023-03-19T10:01:03.711Z,1748.00
2023-03-19T10:02:03.831Z,1684.00
2023-03-19T10:03:04.041Z,1624.00
2023-03-19T10:04:03.733Z,1616.00
2023-03-19T10:05:03.663Z,1712.00
2023-03-19T10:06:03.707Z,1900.00
2023-03-19T10:07:03.655Z,2096.00
2023-03-19T10:08:03.651Z,1988.00
2023-03-19T10:09:03.630Z,2820.00
2023-03-19T10:10:03.617Z,2020.00
2023-03-19T10:11:03.654Z,1896.00
2023-03-19T10:12:03.624Z,1912.00
2023-03-19T10:13:03.575Z,1916.00
2023-03-19T10:14:03.587Z,2284.00
2023-03-19T10:15:03.556Z,2104.00
2023-03-19T10:16:03.624Z,2832.00
2023-03-19T10:17:03.554Z,1996.00
2023-03-19T10:18:03.544Z,1980.00
2023-03-19T10:19:03.506Z,2040.00
2023-03-19T10:20:03.513Z,1984.00
2023-03-19T10:21:03.486Z,1896.00
2023-03-19T10:22:03.498Z,1848.00
2023-03-19T10:23:03.481Z,1796.00
2023-03-19T10:24:03.512Z,1772.00
2023-03-19T10:25:03.447Z,1744.00
2023-03-19T10:26:03.468Z,1684.00
2023-03-19T10:27:03.427Z,1748.00
2023-03-19T10:28:03.413Z,1860.00
2023-03-19T10:29:03.411Z,1792.00
2023-03-19T10:30:03.401Z,1712.00
2023-03-19T10:31:03.511Z,1616.00
2023-03-19T10:32:03.443Z,1600.00
2023-03-19T10:33:03.445Z,1596.00
2023-03-19T10:34:03.358Z,1636.00
2023-03-19T10:35:03.345Z,1592.00
2023-03-19T10:36:03.393Z,1452.00
2023-03-19T10:37:03.302Z,1440.00
2023-03-19T10:38:03.298Z,1492.00
2023-03-19T10:39:03.298Z,1768.00
2023-03-19T10:40:03.291Z,1876.00
2023-03-19T10:41:03.271Z,1744.00
2023-03-19T10:42:03.263Z,2244.00
2023-03-19T10:43:03.244Z,2228.00
2023-03-19T10:44:03.234Z,2048.00
2023-03-19T10:45:03.239Z,1868.00
2023-03-19T10:46:03.268Z,1820.00
2023-03-19T10:47:03.214Z,1676.00
2023-03-19T10:48:03.206Z,1620.00
2023-03-19T10:49:03.199Z,1592.00
2023-03-19T10:50:03.191Z,1604.00
2023-03-19T10:51:03.172Z,1596.00
2023-03-19T10:52:03.143Z,1596.00
2023-03-19T10:53:03.135Z,1572.00
2023-03-19T10:54:03.126Z,1624.00
2023-03-19T10:55:03.929Z,1728.00
2023-03-19T10:56:03.114Z,1900.00
2023-03-19T10:57:03.096Z,2120.00
2023-03-19T10:58:03.106Z,2108.00
2023-03-19T10:59:03.064Z,2140.00
2023-03-19T11:00:03.094Z,2188.00
2023-03-19T11:01:03.145Z,2256.00
2023-03-19T11:02:03.049Z,2292.00
2023-03-19T11:03:03.020Z,2348.00
2023-03-19T11:04:03.039Z,2424.00
2023-03-19T11:05:02.995Z,2612.00
2023-03-19T11:06:03.015Z,3076.00
2023-03-19T11:07:02.967Z,2500.00
2023-03-19T11:08:02.963Z,2468.00
2023-03-19T11:09:02.967Z,2460.00
2023-03-19T11:10:02.948Z,3468.00
2023-03-19T11:11:02.921Z,2552.00
2023-03-19T11:12:03.202Z,2264.00
2023-03-19T11:13:02.903Z,2252.00
2023-03-19T11:14:02.901Z,2224.00
2023-03-19T11:15:02.889Z,2240.00
2023-03-19T11:16:02.870Z,2232.00
2023-03-19T11:17:04.727Z,2204.00
2023-03-19T11:18:02.851Z,2172.00
2023-03-19T11:19:02.843Z,2148.00
2023-03-19T11:20:02.836Z,2136.00
2023-03-19T11:21:02.830Z,2208.00
2023-03-19T11:22:02.865Z,2184.00
2023-03-19T11:23:02.853Z,2172.00
2023-03-19T11:24:02.820Z,2204.00
2023-03-19T11:25:02.790Z,2340.00
2023-03-19T11:26:02.808Z,2176.00
2023-03-19T11:27:02.742Z,2168.00
2023-03-19T11:28:02.745Z,2152.00
2023-03-19T11:29:02.738Z,2068.00
2023-03-19T11:30:02.725Z,2072.00
2023-03-19T11:31:02.718Z,2372.00
2023-03-19T11:32:18.723Z,2784.00
2023-03-19T11:33:03.731Z,2400.00
2023-03-19T11:34:02.685Z,2308.00
2023-03-19T11:35:02.664Z,2012.00
2023-03-19T11:36:02.694Z,1976.00
2023-03-19T11:37:02.624Z,1916.00
2023-03-19T11:38:02.672Z,1788.00
2023-03-19T11:39:02.605Z,1836.00
2023-03-19T11:40:02.658Z,2072.00
2023-03-19T11:41:02.585Z,1996.00
2023-03-19T11:42:02.585Z,1996.00
2023-03-19T11:43:02.573Z,2020.00
2023-03-19T11:44:02.584Z,2072.00
2023-03-19T11:45:02.548Z,1772.00
2023-03-19T11:46:02.663Z,1812.00
2023-03-19T11:47:02.536Z,1744.00
2023-03-19T11:48:02.552Z,1540.00
2023-03-19T11:49:02.499Z,1544.00
2023-03-19T11:50:02.526Z,1712.00
2023-03-19T11:51:02.478Z,1616.00
2023-03-19T11:52:02.490Z,1552.00
2023-03-19T11:53:02.452Z,1592.00
2023-03-19T11:54:02.454Z,1716.00
2023-03-19T11:55:02.426Z,1708.00
2023-03-19T11:56:02.427Z,1772.00
2023-03-19T11:57:02.418Z,1624.00
2023-03-19T11:58:02.404Z,1660.00
2023-03-19T11:59:02.388Z,1728.00
2023-03-19T12:00:02.388Z,1796.00
2023-03-19T12:01:02.371Z,1832.00
2023-03-19T12:02:02.417Z,1948.00
2023-03-19T12:03:02.352Z,2340.00
2023-03-19T12:04:02.340Z,2172.00
2023-03-19T12:05:02.326Z,2276.00
2023-03-19T12:06:02.338Z,2304.00
2023-03-19T12:07:02.312Z,2396.00
2023-03-19T12:08:02.363Z,2340.00
2023-03-19T12:09:02.292Z,2232.00
2023-03-19T12:10:02.282Z,2164.00
2023-03-19T12:11:02.272Z,2120.00
2023-03-19T12:12:02.267Z,2056.00
2023-03-19T12:13:02.267Z,2152.00
2023-03-19T12:14:02.238Z,2264.00
2023-03-19T12:15:02.205Z,2308.00
2023-03-19T12:16:02.250Z,2316.00
2023-03-19T12:17:02.186Z,2252.00
2023-03-19T12:18:02.204Z,2176.00
2023-03-19T12:19:02.178Z,2156.00
2023-03-19T12:20:02.188Z,2128.00
2023-03-19T12:21:02.155Z,2256.00
2023-03-19T12:22:02.148Z,2164.00
2023-03-19T12:23:02.176Z,2212.00
2023-03-19T12:24:02.125Z,2316.00
2023-03-19T12:25:02.096Z,2480.00
2023-03-19T12:26:02.100Z,2620.00
2023-03-19T12:27:02.078Z,2808.00
2023-03-19T12:28:02.092Z,2588.00
2023-03-19T12:29:03.019Z,2508.00
2023-03-19T12:30:02.054Z,2400.00
2023-03-19T12:31:02.060Z,2252.00
2023-03-19T12:32:02.027Z,2136.00
2023-03-19T12:33:02.061Z,2012.00
2023-03-19T12:34:02.045Z,1920.00
2023-03-19T12:35:01.996Z,1840.00
2023-03-19T12:36:02.132Z,1756.00
2023-03-19T12:37:01.969Z,1700.00
2023-03-19T12:38:01.965Z,1644.00
2023-03-19T12:39:01.984Z,1604.00
2023-03-19T12:40:02.016Z,1584.00
2023-03-19T12:41:01.927Z,1560.00